createdAt,value
2023-03-29T00:01:00.437Z,2.40
2023-03-29T00:03:29.018Z,3.78
2023-03-29T00:08:31.821Z,5.65
2023-03-29T00:10:59.713Z,5.32
2023-03-29T00:13:30.805Z,3.20
2023-03-29T00:15:58.024Z,2.95
2023-03-29T00:18:25.580Z,2.53
2023-03-29T00:21:00.699Z,2.78
2023-03-29T00:23:28.340Z,2.63
2023-03-29T00:25:56.703Z,8.20
2023-03-29T00:28:24.417Z,4.97
2023-03-29T00:30:51.997Z,2.42
2023-03-29T00:33:20.878Z,2.90
2023-03-29T00:35:48.730Z,3.78
2023-03-29T00:38:16.573Z,4.35
2023-03-29T00:40:48.556Z,5.93
2023-03-29T00:43:17.054Z,3.10
2023-03-29T00:45:44.253Z,4.95
2023-03-29T00:48:14.089Z,4.07
2023-03-29T00:50:47.564Z,4.20
2023-03-29T00:53:36.552Z,5.43
2023-03-29T00:56:06.365Z,3.58
2023-03-29T00:58:44.097Z,3.55
2023-03-29T01:01:19.690Z,3.75
2023-03-29T01:03:55.974Z,2.33
2023-03-29T01:06:27.356Z,4.80
2023-03-29T01:08:58.767Z,3.90
2023-03-29T01:11:39.783Z,4.53
2023-03-29T01:14:19.480Z,4.13
2023-03-29T01:16:47.119Z,2.95
2023-03-29T01:19:19.674Z,2.83
2023-03-29T01:21:53.601Z,2.28
2023-03-29T01:24:33.798Z,2.33
2023-03-29T01:27:17.427Z,3.10
2023-03-29T01:30:01.524Z,7.25
2023-03-29T01:32:35.214Z,3.00
2023-03-29T01:35:48.657Z,2.95
2023-03-29T01:38:29.740Z,6.68
2023-03-29T01:40:57.035Z,3.85
2023-03-29T01:43:33.804Z,2.97
2023-03-29T01:46:10.807Z,5.80
2023-03-29T01:49:02.134Z,2.67
2023-03-29T01:51:32.403Z,4.13
2023-03-29T01:54:11.736Z,3.92
2023-03-29T01:56:42.528Z,3.83
2023-03-29T01:59:18.062Z,4.00
2023-03-29T02:01:59.921Z,7.18
2023-03-29T02:04:35.432Z,3.90
2023-03-29T02:07:07.531Z,4.20
2023-03-29T02:09:38.831Z,7.22
2023-03-29T02:12:09.458Z,4.28
2023-03-29T02:14:36.813Z,7.30
2023-03-29T02:17:24.017Z,3.35
2023-03-29T02:19:58.330Z,4.25
2023-03-29T02:22:32.082Z,6.32
2023-03-29T02:25:02.020Z,4.22
2023-03-29T02:27:30.384Z,5.20
2023-03-29T02:29:57.888Z,5.78
2023-03-29T02:32:40.473Z,5.00
2023-03-29T02:35:14.609Z,8.43
2023-03-29T02:37:49.832Z,5.55
2023-03-29T02:40:18.609Z,5.03
2023-03-29T02:42:47.672Z,7.22
2023-03-29T02:45:17.399Z,6.72
2023-03-29T02:47:53.672Z,6.35
2023-03-29T02:50:21.957Z,3.70
2023-03-29T02:52:59.753Z,4.55
2023-03-29T02:55:35.003Z,4.18
2023-03-29T02:58:09.352Z,7.40
2023-03-29T03:00:39.573Z,5.95
2023-03-29T03:03:08.578Z,4.50
2023-03-29T03:05:38.502Z,6.47
2023-03-29T03:08:07.553Z,7.75
2023-03-29T03:10:36.118Z,4.95
2023-03-29T03:13:03.798Z,4.72
2023-03-29T03:15:31.477Z,5.53
2023-03-29T03:18:04.978Z,6.32
2023-03-29T03:20:32.038Z,5.20
2023-03-29T03:22:59.536Z,4.75
2023-03-29T03:25:26.717Z,7.20
2023-03-29T03:27:54.442Z,4.28
2023-03-29T03:30:22.317Z,9.93
2023-03-29T03:32:49.998Z,6.13
2023-03-29T03:35:19.686Z,4.70
2023-03-29T03:37:47.174Z,5.88
2023-03-29T03:40:14.413Z,6.07
2023-03-29T03:42:43.717Z,6.35
2023-03-29T03:45:10.990Z,5.13
2023-03-29T03:47:38.570Z,5.55
2023-03-29T03:50:07.715Z,6.35
2023-03-29T03:52:35.007Z,6.57
2023-03-29T03:55:03.139Z,4.05
2023-03-29T03:57:30.302Z,7.93
2023-03-29T04:00:01.105Z,4.80
2023-03-29T04:02:28.508Z,5.95
2023-03-29T04:04:57.115Z,5.03
2023-03-29T04:07:25.643Z,4.00
2023-03-29T04:09:53.358Z,4.15
2023-03-29T04:12:20.999Z,5.03
2023-03-29T04:14:49.205Z,3.25
2023-03-29T04:17:16.689Z,4.22
2023-03-29T04:19:46.575Z,5.78
2023-03-29T04:22:13.916Z,4.80
2023-03-29T04:24:41.611Z,6.38
2023-03-29T04:27:09.571Z,8.93
2023-03-29T04:29:38.320Z,8.32
2023-03-29T04:34:34.245Z,5.78
2023-03-29T04:39:32.444Z,9.05
2023-03-29T04:42:00.188Z,6.13
2023-03-29T04:44:27.104Z,6.13
2023-03-29T04:46:58.542Z,5.75
2023-03-29T04:49:26.664Z,4.57
2023-03-29T04:51:54.612Z,4.70
2023-03-29T04:54:21.862Z,4.38
2023-03-29T04:56:49.260Z,5.32
2023-03-29T04:59:16.248Z,6.35
2023-03-29T05:01:43.935Z,5.88
2023-03-29T05:04:12.717Z,7.78
2023-03-29T05:06:41.792Z,7.43
2023-03-29T05:09:09.007Z,5.40
2023-03-29T05:11:37.387Z,6.20
2023-03-29T05:14:09.670Z,7.32
2023-03-29T05:16:39.835Z,4.72
2023-03-29T05:19:07.449Z,6.50
2023-03-29T05:21:35.441Z,3.90
2023-03-29T05:24:03.097Z,6.78
2023-03-29T05:26:31.406Z,8.73
2023-03-29T05:28:58.810Z,6.90
2023-03-29T05:31:25.892Z,7.63
2023-03-29T05:33:53.044Z,6.78
2023-03-29T05:36:21.432Z,7.80
2023-03-29T05:38:48.559Z,7.30
2023-03-29T05:41:16.551Z,6.43
2023-03-29T05:43:43.475Z,7.68
2023-03-29T05:46:10.770Z,7.63
2023-03-29T05:48:38.420Z,8.30
2023-03-29T05:51:06.807Z,5.03
2023-03-29T05:56:02.828Z,5.53
2023-03-29T05:58:30.940Z,5.80
2023-03-29T06:00:58.137Z,4.88
2023-03-29T06:03:28.565Z,5.88
2023-03-29T06:06:08.043Z,6.78
2023-03-29T06:08:35.575Z,6.80
2023-03-29T06:11:06.093Z,8.57
2023-03-29T06:13:34.280Z,9.23
2023-03-29T06:16:02.860Z,6.47
2023-03-29T06:18:33.884Z,5.20
2023-03-29T06:21:05.668Z,5.57
2023-03-29T06:23:33.107Z,3.90
2023-03-29T06:26:01.569Z,4.30
2023-03-29T06:28:44.565Z,5.78
2023-03-29T06:31:13.188Z,6.05
2023-03-29T06:33:42.697Z,6.55
2023-03-29T06:36:14.453Z,6.93
2023-03-29T06:38:41.894Z,6.85
2023-03-29T06:41:12.973Z,7.53
2023-03-29T06:43:41.021Z,5.47
2023-03-29T06:46:13.153Z,7.65
2023-03-29T06:48:41.884Z,4.95
2023-03-29T06:51:17.694Z,5.00
2023-03-29T06:53:46.383Z,6.15
2023-03-29T06:56:13.540Z,6.95
2023-03-29T06:58:41.358Z,7.07
2023-03-29T07:01:09.466Z,7.25
2023-03-29T07:03:36.591Z,6.78
2023-03-29T07:06:10.513Z,7.90
2023-03-29T07:08:51.976Z,7.13
2023-03-29T07:11:20.730Z,5.70
2023-03-29T07:13:49.565Z,5.93
2023-03-29T07:16:19.443Z,7.47
2023-03-29T07:18:48.205Z,6.40
2023-03-29T07:21:15.319Z,8.32
2023-03-29T07:23:42.649Z,8.75
2023-03-29T07:26:10.539Z,10.05
2023-03-29T07:28:38.062Z,6.50
2023-03-29T07:31:11.307Z,9.85
2023-03-29T07:33:39.865Z,8.73
2023-03-29T07:36:07.436Z,8.93
2023-03-29T07:38:34.484Z,10.45
2023-03-29T07:41:05.786Z,9.00
2023-03-29T07:43:35.454Z,10.25
2023-03-29T07:46:05.845Z,9.27
2023-03-29T07:48:34.237Z,8.18
2023-03-29T07:51:01.683Z,9.52
2023-03-29T07:53:30.977Z,8.55
2023-03-29T07:55:58.652Z,6.10
2023-03-29T07:58:28.771Z,7.38
2023-03-29T08:00:55.751Z,9.05
2023-03-29T08:03:23.140Z,7.95
2023-03-29T08:05:50.294Z,10.32
2023-03-29T08:08:17.703Z,8.93
2023-03-29T08:10:45.200Z,8.68
2023-03-29T08:13:14.526Z,7.90
2023-03-29T08:15:47.064Z,11.35
2023-03-29T08:18:16.040Z,10.63
2023-03-29T08:20:43.839Z,10.60
2023-03-29T08:23:11.643Z,8.13
2023-03-29T08:25:40.523Z,8.00
2023-03-29T08:28:07.480Z,7.88
2023-03-29T08:30:34.785Z,10.20
2023-03-29T08:33:01.880Z,10.55
2023-03-29T08:35:29.280Z,9.80
2023-03-29T08:37:56.684Z,8.30
2023-03-29T08:40:27.635Z,10.05
2023-03-29T08:43:12.502Z,13.90
2023-03-29T08:45:48.421Z,10.05
2023-03-29T08:48:29.316Z,10.60
2023-03-29T08:51:09.357Z,10.65
2023-03-29T08:53:50.487Z,8.63
2023-03-29T08:56:23.492Z,8.45
2023-03-29T08:58:55.451Z,13.55
2023-03-29T09:01:31.831Z,10.35
2023-03-29T09:04:15.186Z,14.68
2023-03-29T09:06:44.960Z,11.15
2023-03-29T09:09:17.480Z,15.43
2023-03-29T09:12:02.977Z,11.98
2023-03-29T09:15:02.932Z,12.88
2023-03-29T09:17:36.309Z,15.43
2023-03-29T09:20:26.658Z,12.52
2023-03-29T09:23:35.107Z,11.60
2023-03-29T09:26:24.908Z,11.20
2023-03-29T09:29:30.538Z,10.38
2023-03-29T09:31:59.580Z,18.63
2023-03-29T09:34:41.168Z,13.73
2023-03-29T09:37:35.918Z,12.80
2023-03-29T09:40:11.273Z,10.93
2023-03-29T09:42:39.962Z,11.73
2023-03-29T09:45:10.094Z,13.77
2023-03-29T09:47:46.273Z,12.38
2023-03-29T09:50:30.226Z,17.13
2023-03-29T09:52:59.568Z,13.00
2023-03-29T09:55:33.904Z,13.27
2023-03-29T09:58:07.981Z,13.60
2023-03-29T10:00:35.086Z,13.30
2023-03-29T10:03:06.947Z,13.55
2023-03-29T10:05:40.250Z,14.07
2023-03-29T10:08:28.010Z,12.30
2023-03-29T10:10:58.984Z,11.13
2023-03-29T10:13:32.514Z,12.32
2023-03-29T10:16:09.442Z,11.15
2023-03-29T10:18:42.579Z,15.73
2023-03-29T10:21:15.916Z,16.27
2023-03-29T10:23:44.988Z,18.48
2023-03-29T10:26:32.432Z,17.13
2023-03-29T10:29:02.298Z,16.77
2023-03-29T10:31:36.823Z,15.98
2023-03-29T10:34:08.589Z,15.30
2023-03-29T10:36:36.235Z,19.13
2023-03-29T10:39:10.108Z,17.77
2023-03-29T10:41:38.285Z,16.58
2023-03-29T10:44:06.298Z,18.02
2023-03-29T10:46:42.787Z,21.10
2023-03-29T10:49:21.984Z,20.45
2023-03-29T10:51:52.171Z,20.17
2023-03-29T10:54:22.845Z,16.92
2023-03-29T10:56:58.590Z,15.73
2023-03-29T10:59:40.431Z,17.88
2023-03-29T11:02:13.592Z,18.95
2023-03-29T11:04:50.647Z,20.60
2023-03-29T11:07:31.661Z,19.63
2023-03-29T11:10:28.972Z,19.67
2023-03-29T11:13:24.559Z,13.07
2023-03-29T11:16:28.686Z,16.10
2023-03-29T11:19:33.921Z,13.73
2023-03-29T11:22:29.511Z,24.75
2023-03-29T11:25:09.069Z,20.88
2023-03-29T11:27:47.071Z,19.83
2023-03-29T11:30:33.061Z,19.98
2023-03-29T11:33:02.196Z,18.85
2023-03-29T11:35:38.787Z,19.33
2023-03-29T11:38:20.917Z,19.30
2023-03-29T11:40:59.716Z,17.85
2023-03-29T11:43:42.811Z,14.88
2023-03-29T11:46:33.148Z,12.82
2023-03-29T11:49:15.592Z,11.35
2023-03-29T11:51:51.227Z,12.35
2023-03-29T11:54:25.839Z,10.93
2023-03-29T11:57:20.707Z,12.43
2023-03-29T12:00:14.761Z,11.63
2023-03-29T12:02:50.962Z,12.15
2023-03-29T12:05:28.205Z,15.30
2023-03-29T12:08:07.754Z,13.75
2023-03-29T12:10:43.112Z,12.20
2023-03-29T12:13:43.067Z,15.38
2023-03-29T12:16:26.376Z,14.88
2023-03-29T12:18:57.861Z,11.50
2023-03-29T12:21:29.571Z,11.65
2023-03-29T12:23:58.459Z,12.50
2023-03-29T12:27:03.587Z,10.23
2023-03-29T12:29:45.428Z,11.77
2023-03-29T12:32:27.552Z,10.77
2023-03-29T12:35:16.451Z,13.40
2023-03-29T12:38:04.762Z,10.77
2023-03-29T12:40:41.926Z,11.65
2023-03-29T12:43:15.971Z,11.48
2023-03-29T12:45:51.258Z,12.80
2023-03-29T12:48:25.596Z,13.57
2023-03-29T12:53:25.009Z,12.93
2023-03-29T12:56:08.750Z,11.98
2023-03-29T12:58:59.053Z,13.75
2023-03-29T13:01:29.984Z,14.10
2023-03-29T13:03:59.651Z,12.13
2023-03-29T13:06:51.050Z,11.93
2023-03-29T13:09:25.087Z,14.95
2023-03-29T13:12:05.999Z,13.38
2023-03-29T13:14:37.422Z,13.65
2023-03-29T13:19:50.668Z,14.68
2023-03-29T13:22:41.446Z,13.15
2023-03-29T13:25:36.687Z,12.85
2023-03-29T13:28:22.511Z,14.80
2023-03-29T13:30:58.539Z,13.73
2023-03-29T13:33:41.791Z,14.63
2023-03-29T13:36:17.897Z,16.40
2023-03-29T13:38:53.862Z,17.35
2023-03-29T13:41:38.741Z,12.85
2023-03-29T13:44:23.182Z,14.60
2023-03-29T13:47:05.762Z,11.95
2023-03-29T13:49:34.768Z,14.35
2023-03-29T13:52:01.597Z,13.82
2023-03-29T13:54:43.397Z,14.15
2023-03-29T13:57:20.125Z,15.50
2023-03-29T13:59:57.508Z,13.05
2023-03-29T14:02:39.702Z,15.75
2023-03-29T14:05:09.541Z,14.88
2023-03-29T14:07:39.717Z,13.57
2023-03-29T14:10:07.930Z,13.77
2023-03-29T14:15:21.420Z,12.63
2023-03-29T14:17:48.864Z,12.15
2023-03-29T14:20:16.815Z,14.70
2023-03-29T14:22:44.316Z,13.45
2023-03-29T14:25:17.414Z,11.45
2023-03-29T14:27:44.553Z,13.98
2023-03-29T14:30:24.115Z,12.73
2023-03-29T14:32:51.726Z,16.95
2023-03-29T14:35:18.592Z,15.90
2023-03-29T14:37:48.099Z,14.40
2023-03-29T14:40:19.896Z,18.70
2023-03-29T14:42:48.457Z,10.90
2023-03-29T14:45:20.983Z,12.10
2023-03-29T14:47:48.803Z,14.57
2023-03-29T14:50:24.451Z,13.98
2023-03-29T14:52:52.380Z,12.18
2023-03-29T14:57:53.912Z,12.15
2023-03-29T15:00:31.933Z,16.80
2023-03-29T15:03:01.861Z,13.93
2023-03-29T15:05:34.032Z,11.82
2023-03-29T15:08:02.320Z,15.18
2023-03-29T15:10:32.748Z,12.43
2023-03-29T15:13:02.609Z,15.27
2023-03-29T15:15:32.933Z,12.18
2023-03-29T15:18:01.093Z,15.50
2023-03-29T15:20:37.677Z,15.82
2023-03-29T15:23:08.962Z,13.18
2023-03-29T15:25:52.518Z,12.13
2023-03-29T15:28:33.242Z,13.98
2023-03-29T15:31:07.927Z,12.00
2023-03-29T15:33:40.442Z,14.00
2023-03-29T15:36:09.934Z,14.68
2023-03-29T15:41:10.753Z,14.45
2023-03-29T15:43:38.076Z,16.20
2023-03-29T15:46:05.477Z,15.15
2023-03-29T15:48:34.079Z,13.23
2023-03-29T15:51:06.226Z,12.85
2023-03-29T15:53:34.144Z,14.93
2023-03-29T15:56:04.314Z,17.55
2023-03-29T15:58:33.834Z,17.13
2023-03-29T16:01:19.333Z,14.15
2023-03-29T16:03:48.069Z,15.85
2023-03-29T16:06:16.256Z,20.40
2023-03-29T16:08:43.680Z,11.77
2023-03-29T16:11:11.664Z,16.77
2023-03-29T16:13:39.202Z,15.50
2023-03-29T16:16:07.102Z,14.25
2023-03-29T16:18:35.864Z,16.52
2023-03-29T16:21:04.041Z,17.02
2023-03-29T16:23:31.642Z,13.75
2023-03-29T16:26:04.341Z,15.00
2023-03-29T16:28:31.974Z,15.10
2023-03-29T16:30:59.664Z,16.42
2023-03-29T16:33:27.154Z,14.07
2023-03-29T16:35:53.975Z,16.58
2023-03-29T16:38:21.804Z,15.70
2023-03-29T16:40:49.978Z,15.15
2023-03-29T16:43:18.940Z,13.88
2023-03-29T16:45:46.061Z,16.00
2023-03-29T16:48:19.082Z,14.25
2023-03-29T16:50:51.250Z,13.77
2023-03-29T16:53:19.132Z,13.88
2023-03-29T16:55:49.738Z,17.77
2023-03-29T16:58:16.725Z,15.43
2023-03-29T17:00:47.916Z,14.82
2023-03-29T17:03:18.130Z,12.07
2023-03-29T17:05:52.116Z,13.52
2023-03-29T17:08:21.606Z,16.55
2023-03-29T17:10:54.438Z,11.90
2023-03-29T17:13:26.181Z,18.55
2023-03-29T17:15:55.286Z,11.73
2023-03-29T17:18:25.102Z,12.57
2023-03-29T17:20:55.499Z,9.95
2023-03-29T17:23:25.479Z,13.02
2023-03-29T17:25:57.101Z,13.88
2023-03-29T17:28:24.324Z,13.48
2023-03-29T17:30:52.620Z,9.57
2023-03-29T17:33:22.859Z,11.35
2023-03-29T17:35:50.291Z,10.30
2023-03-29T17:38:17.616Z,9.82
2023-03-29T17:40:44.912Z,9.80
2023-03-29T17:43:12.227Z,7.95
2023-03-29T17:45:40.726Z,9.23
2023-03-29T17:48:08.844Z,8.52
2023-03-29T17:50:36.408Z,8.15
2023-03-29T17:53:08.018Z,9.70
2023-03-29T17:55:34.927Z,9.27
2023-03-29T17:58:04.932Z,8.50
2023-03-29T18:00:33.115Z,6.78
2023-03-29T18:03:02.178Z,6.80
2023-03-29T18:05:29.280Z,8.60
2023-03-29T18:07:58.719Z,9.18
2023-03-29T18:10:26.142Z,7.93
2023-03-29T18:12:54.908Z,7.68
2023-03-29T18:15:24.192Z,6.63
2023-03-29T18:17:51.522Z,5.28
2023-03-29T18:20:21.184Z,5.45
2023-03-29T18:22:50.569Z,5.45
2023-03-29T18:25:18.407Z,4.75
2023-03-29T18:27:45.929Z,6.07
2023-03-29T18:30:16.965Z,5.50
2023-03-29T18:32:44.091Z,5.85
2023-03-29T18:35:15.585Z,15.40
2023-03-29T18:37:43.702Z,7.60
2023-03-29T18:42:38.292Z,6.82
2023-03-29T18:45:06.283Z,5.32
2023-03-29T18:47:33.402Z,4.60
2023-03-29T18:50:03.639Z,6.05
2023-03-29T18:52:30.668Z,4.97
2023-03-29T18:54:57.653Z,4.78
2023-03-29T18:57:26.057Z,6.50
2023-03-29T18:59:55.197Z,4.82
2023-03-29T19:02:22.404Z,6.97
2023-03-29T19:04:49.516Z,4.30
2023-03-29T19:07:21.050Z,4.40
2023-03-29T19:09:50.011Z,3.97
2023-03-29T19:12:18.443Z,6.00
2023-03-29T19:14:46.810Z,6.53
2023-03-29T19:17:13.847Z,6.68
2023-03-29T19:19:42.310Z,4.85
2023-03-29T19:22:09.814Z,4.05
2023-03-29T19:24:37.112Z,4.45
2023-03-29T19:27:05.328Z,5.47
2023-03-29T19:29:34.206Z,7.13
2023-03-29T19:32:01.960Z,6.47
2023-03-29T19:34:31.518Z,7.03
2023-03-29T19:37:01.187Z,4.78
2023-03-29T19:39:30.175Z,5.03
2023-03-29T19:41:57.396Z,5.32
2023-03-29T19:44:24.963Z,5.90
2023-03-29T19:46:52.253Z,4.45
2023-03-29T19:49:19.167Z,6.30
2023-03-29T19:51:46.296Z,6.13
2023-03-29T19:54:14.166Z,5.10
2023-03-29T19:56:43.169Z,9.77
2023-03-29T19:59:11.598Z,6.00
2023-03-29T20:04:31.468Z,5.45
2023-03-29T20:07:01.890Z,6.97
2023-03-29T20:09:28.925Z,6.85
2023-03-29T20:11:56.082Z,7.72
2023-03-29T20:14:31.798Z,8.07
2023-03-29T20:17:00.589Z,5.68
2023-03-29T20:19:30.045Z,9.30
2023-03-29T20:22:00.287Z,6.75
2023-03-29T20:24:27.067Z,6.03
2023-03-29T20:26:54.272Z,7.47
2023-03-29T20:29:21.321Z,6.15
2023-03-29T20:31:54.223Z,5.68
2023-03-29T20:34:23.158Z,5.00
2023-03-29T20:39:20.308Z,9.65
2023-03-29T20:41:47.961Z,10.82
2023-03-29T20:44:16.997Z,6.88
2023-03-29T20:47:04.656Z,6.03
2023-03-29T20:49:39.117Z,4.75
2023-03-29T20:52:19.394Z,10.13
2023-03-29T20:54:46.684Z,7.05
2023-03-29T20:57:16.845Z,8.00
2023-03-29T20:59:47.119Z,5.07
2023-03-29T21:02:21.193Z,5.50
2023-03-29T21:04:51.904Z,6.20
2023-03-29T21:07:20.362Z,6.53
2023-03-29T21:09:50.658Z,5.57
2023-03-29T21:12:18.292Z,5.85
2023-03-29T21:14:49.542Z,6.75
2023-03-29T21:17:16.691Z,5.53
2023-03-29T21:19:43.621Z,10.38
2023-03-29T21:22:13.787Z,8.32
2023-03-29T21:24:41.777Z,5.45
2023-03-29T21:27:08.599Z,6.03
2023-03-29T21:29:36.906Z,6.78
2023-03-29T21:32:04.822Z,7.35
2023-03-29T21:34:31.710Z,7.22
2023-03-29T21:37:22.006Z,5.78
2023-03-29T21:39:49.104Z,5.75
2023-03-29T21:42:17.527Z,8.27
2023-03-29T21:44:46.392Z,8.32
2023-03-29T21:47:17.597Z,6.95
2023-03-29T21:49:44.452Z,7.32
2023-03-29T21:52:11.181Z,7.65
2023-03-29T21:54:40.955Z,8.15
2023-03-29T21:57:09.420Z,8.55
2023-03-29T21:59:36.186Z,6.05
2023-03-29T22:02:03.518Z,7.53
2023-03-29T22:04:37.131Z,4.95
2023-03-29T22:07:06.977Z,5.75
2023-03-29T22:09:38.089Z,6.43
2023-03-29T22:12:06.039Z,4.85
2023-03-29T22:14:36.816Z,6.00
2023-03-29T22:17:07.730Z,6.82
2023-03-29T22:19:43.600Z,7.38
2023-03-29T22:22:15.050Z,9.25
2023-03-29T22:24:42.418Z,8.90
2023-03-29T22:27:11.908Z,8.23
2023-03-29T22:29:42.488Z,6.18
2023-03-29T22:32:10.632Z,7.43
2023-03-29T22:34:37.888Z,7.10
2023-03-29T22:37:06.509Z,6.72
2023-03-29T22:39:37.201Z,4.68
2023-03-29T22:42:05.447Z,6.15
2023-03-29T22:44:34.034Z,10.00
2023-03-29T22:47:01.165Z,6.75
2023-03-29T22:49:28.341Z,7.38
2023-03-29T22:51:55.564Z,5.18
2023-03-29T22:54:26.890Z,5.20
2023-03-29T22:56:54.592Z,7.07
2023-03-29T22:59:22.264Z,7.95
2023-03-29T23:01:50.618Z,6.45
2023-03-29T23:04:21.142Z,4.30
2023-03-29T23:07:26.407Z,7.55
2023-03-29T23:09:56.267Z,7.45
2023-03-29T23:12:24.267Z,5.55
2023-03-29T23:14:53.175Z,9.80
2023-03-29T23:17:21.144Z,4.78
2023-03-29T23:19:51.251Z,6.88
2023-03-29T23:22:19.631Z,7.43
2023-03-29T23:24:47.414Z,3.95
2023-03-29T23:27:16.197Z,6.50
2023-03-29T23:29:47.716Z,10.80
2023-03-29T23:32:16.065Z,4.93
2023-03-29T23:37:12.276Z,8.48
2023-03-29T23:39:39.762Z,6.18
2023-03-29T23:42:08.256Z,4.88
2023-03-29T23:44:34.983Z,10.00
2023-03-29T23:47:04.415Z,5.82
2023-03-29T23:49:31.877Z,5.20
2023-03-29T23:52:06.086Z,5.43
2023-03-29T23:54:32.885Z,5.82
2023-03-29T23:57:03.350Z,5.15
2023-03-29T23:59:37.874Z,7.60
